Hlavní strana
METAR-TAF:

METAR-TAF

Letiště :

Delaware County Airport (Johnson Field)

Muncie, Indiana, Spojené státy americké

zeměpisná šířka: 40-14-03N, zeměpisná délka: 085-23-37W, výška: 285 m

Aktuální stav počasí

Zpráva byla vytvořena před 22 minutami, v 23:53 UTC
Západoseverozápadní vítr 16 kt s nárazy do 24 kt
Teplota 4°C
Vlhkost vzduchu 70%
Tlak 1018 hPa
Viditelnost: 16.1 km
Skoro jasno ve výšce 5000 ft
Skoro jasno ve výšce 8000 ft
Oblačno až skoro zataženo ve výšce 11000 ft

METAR: KMIE 202353Z 30016G24KT 10SM FEW050 FEW080 BKN110 04/M01 A3005 RMK AO2 PK WND 32030/2254 SLP177 60004 T00391011 10161 20033 51070

Čas: 20:15 (00:15 UTC)


TAF: chybějící

Stav a předpovědi počasí z více než 4 000 letišť (zprávy METAR a TAF).

Červené a žluté tečky na mapě představují dostupné meteorologické stanice.

Když kurzor umístíte na tečku, zobrazí se název stanice.

Pak kliknutím zobrazíte stav a předpověď počasí.

Chcete-li změnit mapu, kliknutím na zelené tlačítko se znaménkem +mapu přiblížíte, kliknutím na zelené tlačítko se znaménkem – mapu oddálíte a kliknutím na zelené šipky přejdete na sousední mapy.


METAR-TAF: